Time,TemperatureF,DewpointF,PressureIn,WindDirection,WindDirectionDegrees,WindSpeedMPH,WindSpeedGustMPH,Humidity,HourlyPrecipIn,Conditions,Clouds,dailyrainin,SoftwareType,DateUTC
2013-02-10 00:21:00,35.0,13.0,-100.00,NE,48,6.0,8.0,39,0.00,,,0.00,,2013-02-10 00:21:00,
2013-02-10 00:32:00,35.0,13.0,-100.00,NE,48,6.0,8.0,39,0.00,,,0.00,,2013-02-10 00:32:00,
2013-02-10 00:41:00,35.0,13.0,-100.00,NE,48,6.0,8.0,39,0.00,,,0.00,,2013-02-10 00:41:00,
2013-02-10 00:51:00,35.0,13.0,-100.00,NE,48,6.0,8.0,39,0.00,,,0.00,,2013-02-10 00:51:00,
2013-02-10 01:12:00,33.0,14.0,-100.00,ENE,60,5.0,7.0,46,0.00,,,0.00,,2013-02-10 01:12:00,
2013-02-10 01:21:00,33.0,14.0,-100.00,ENE,60,5.0,7.0,46,0.00,,,0.00,,2013-02-10 01:21:00,
2013-02-10 01:31:00,33.0,14.0,-100.00,ENE,60,5.0,7.0,46,0.00,,,0.00,,2013-02-10 01:31:00,
2013-02-10 01:41:00,33.0,14.0,-100.00,ENE,60,5.0,7.0,46,0.00,,,0.00,,2013-02-10 01:41:00,
2013-02-10 01:51:00,33.0,14.0,-100.00,ENE,60,5.0,7.0,46,0.00,,,0.00,,2013-02-10 01:51:00,
2013-02-10 02:22:00,25.0,13.0,-100.00,North,8,5.0,7.0,58,0.00,,,0.00,,2013-02-10 02:22:00,
2013-02-10 02:31:00,25.0,13.0,-100.00,North,8,5.0,7.0,58,0.00,,,0.00,,2013-02-10 02:31:00,
2013-02-10 02:41:00,25.0,13.0,-100.00,North,8,5.0,7.0,58,0.00,,,0.00,,2013-02-10 02:41:00,
2013-02-10 02:52:00,25.0,13.0,-100.00,North,8,5.0,7.0,58,0.00,,,0.00,,2013-02-10 02:52:00,
2013-02-10 03:11:00,25.0,12.0,-100.00,NNE,25,5.0,7.0,58,0.00,,,0.00,,2013-02-10 03:11:00,
2013-02-10 03:21:00,25.0,12.0,-100.00,NNE,25,5.0,7.0,58,0.00,,,0.00,,2013-02-10 03:21:00,
2013-02-10 03:32:00,25.0,12.0,-100.00,NNE,25,5.0,7.0,58,0.00,,,0.00,,2013-02-10 03:32:00,
2013-02-10 03:41:00,25.0,12.0,-100.00,NNE,25,5.0,7.0,58,0.00,,,0.00,,2013-02-10 03:41:00,
2013-02-10 03:51:00,25.0,12.0,-100.00,NNE,25,5.0,7.0,58,0.00,,,0.00,,2013-02-10 03:51:00,
2013-02-10 04:11:00,25.0,13.0,-100.00,NNE,12,6.0,10.0,59,0.00,,,-99.99,,2013-02-10 04:11:00,
2013-02-10 04:21:00,25.0,13.0,-100.00,NNE,12,6.0,10.0,59,0.00,,,-99.99,,2013-02-10 04:21:00,
2013-02-10 04:32:00,25.0,13.0,-100.00,NNE,12,6.0,10.0,59,0.00,,,-99.99,,2013-02-10 04:32:00,
2013-02-10 04:41:00,25.0,13.0,-100.00,NNE,12,6.0,10.0,59,0.00,,,-99.99,,2013-02-10 04:41:00,
2013-02-10 04:51:00,25.0,13.0,-100.00,NNE,12,6.0,10.0,59,0.00,,,-99.99,,2013-02-10 04:51:00,
2013-02-10 05:22:00,23.0,13.0,-100.00,NNE,14,7.0,12.0,66,0.00,,,0.00,,2013-02-10 05:22:00,
2013-02-10 05:31:00,23.0,13.0,-100.00,NNE,14,7.0,12.0,66,0.00,,,0.00,,2013-02-10 05:31:00,
2013-02-10 05:41:00,23.0,13.0,-100.00,NNE,14,7.0,12.0,66,0.00,,,0.00,,2013-02-10 05:41:00,
2013-02-10 05:52:00,23.0,13.0,-100.00,NNE,14,7.0,12.0,66,0.00,,,0.00,,2013-02-10 05:52:00,
2013-02-10 06:21:00,23.0,13.0,-100.00,NE,47,4.0,7.0,66,0.00,,,0.00,,2013-02-10 06:21:00,
2013-02-10 06:32:00,23.0,13.0,-100.00,NE,47,4.0,7.0,66,0.00,,,0.00,,2013-02-10 06:32:00,
2013-02-10 06:42:00,23.0,13.0,-100.00,NE,47,4.0,7.0,66,0.00,,,0.00,,2013-02-10 06:42:00,
2013-02-10 06:51:00,23.0,13.0,-100.00,NE,47,4.0,7.0,66,0.00,,,0.00,,2013-02-10 06:51:00,
2013-02-10 07:11:00,22.0,12.0,-100.00,NE,36,8.0,12.0,65,0.00,,,0.00,,2013-02-10 07:11:00,
2013-02-10 07:21:00,22.0,12.0,-100.00,NE,36,8.0,12.0,65,0.00,,,0.00,,2013-02-10 07:21:00,
2013-02-10 07:31:00,22.0,12.0,-100.00,NE,36,8.0,12.0,65,0.00,,,0.00,,2013-02-10 07:31:00,
2013-02-10 07:41:00,22.0,12.0,-100.00,NE,36,8.0,12.0,65,0.00,,,0.00,,2013-02-10 07:41:00,
2013-02-10 07:51:00,22.0,12.0,-100.00,NE,36,8.0,12.0,65,0.00,,,0.00,,2013-02-10 07:51:00,
2013-02-10 08:11:00,22.0,12.0,-100.00,NNE,13,6.0,13.0,66,0.00,,,0.00,,2013-02-10 08:11:00,
2013-02-10 08:21:00,22.0,12.0,-100.00,NNE,13,6.0,13.0,66,0.00,,,0.00,,2013-02-10 08:21:00,
2013-02-10 08:31:00,22.0,12.0,-100.00,NNE,13,6.0,13.0,66,0.00,,,0.00,,2013-02-10 08:31:00,
2013-02-10 08:43:00,22.0,12.0,-100.00,NNE,13,6.0,13.0,66,0.00,,,0.00,,2013-02-10 08:43:00,
2013-02-10 08:52:00,22.0,12.0,-100.00,NNE,13,6.0,13.0,66,0.00,,,0.00,,2013-02-10 08:52:00,
2013-02-10 09:11:00,20.0,12.0,-100.00,NNE,23,6.0,9.0,70,0.00,,,0.00,,2013-02-10 09:11:00,
2013-02-10 09:21:00,20.0,12.0,-100.00,NNE,23,6.0,9.0,70,0.00,,,0.00,,2013-02-10 09:21:00,
2013-02-10 09:31:00,20.0,12.0,-100.00,NNE,23,6.0,9.0,70,0.00,,,0.00,,2013-02-10 09:31:00,
2013-02-10 09:41:00,20.0,12.0,-100.00,NNE,23,6.0,9.0,70,0.00,,,0.00,,2013-02-10 09:41:00,
2013-02-10 09:51:00,20.0,12.0,-100.00,NNE,23,6.0,9.0,70,0.00,,,0.00,,2013-02-10 09:51:00,
2013-02-10 10:11:00,21.0,12.0,-100.00,North,8,8.0,13.0,68,0.00,,,0.00,,2013-02-10 10:11:00,
2013-02-10 10:21:00,21.0,12.0,-100.00,North,8,8.0,13.0,68,0.00,,,0.00,,2013-02-10 10:21:00,
2013-02-10 10:31:00,21.0,12.0,-100.00,North,8,8.0,13.0,68,0.00,,,0.00,,2013-02-10 10:31:00,
2013-02-10 10:41:00,21.0,12.0,-100.00,North,8,8.0,13.0,68,0.00,,,0.00,,2013-02-10 10:41:00,
2013-02-10 10:51:00,21.0,12.0,-100.00,North,8,8.0,13.0,68,0.00,,,0.00,,2013-02-10 10:51:00,
2013-02-10 11:11:00,21.0,12.0,-100.00,NNE,15,9.0,14.0,66,0.00,,,0.00,,2013-02-10 11:11:00,
2013-02-10 11:21:00,21.0,12.0,-100.00,NNE,15,9.0,14.0,66,0.00,,,0.00,,2013-02-10 11:21:00,
2013-02-10 11:32:00,21.0,12.0,-100.00,NNE,15,9.0,14.0,66,0.00,,,0.00,,2013-02-10 11:32:00,
2013-02-10 11:42:00,21.0,12.0,-100.00,NNE,15,9.0,14.0,66,0.00,,,0.00,,2013-02-10 11:42:00,
2013-02-10 11:52:00,21.0,12.0,-100.00,NNE,15,9.0,14.0,66,0.00,,,0.00,,2013-02-10 11:52:00,
2013-02-10 12:12:00,21.0,11.0,-100.00,North,9,9.0,15.0,66,0.00,,,0.00,,2013-02-10 12:12:00,
2013-02-10 12:21:00,21.0,11.0,-100.00,North,9,9.0,15.0,66,0.00,,,0.00,,2013-02-10 12:21:00,
2013-02-10 12:32:00,21.0,11.0,-100.00,North,9,9.0,15.0,66,0.00,,,0.00,,2013-02-10 12:32:00,
2013-02-10 12:41:00,21.0,11.0,-100.00,North,9,9.0,15.0,66,0.00,,,0.00,,2013-02-10 12:41:00,
2013-02-10 12:52:00,21.0,11.0,-100.00,North,9,9.0,15.0,66,0.00,,,0.00,,2013-02-10 12:52:00,
2013-02-10 15:11:00,18.0,9.0,-100.00,North,8,5.0,6.0,65,-99.99,,,0.00,,2013-02-10 15:11:00,
2013-02-10 15:21:00,18.0,9.0,-100.00,North,8,5.0,6.0,65,-99.99,,,0.00,,2013-02-10 15:21:00,
2013-02-10 15:31:00,18.0,9.0,-100.00,North,8,5.0,6.0,65,-99.99,,,0.00,,2013-02-10 15:31:00,
2013-02-10 15:41:00,18.0,9.0,-100.00,North,8,5.0,6.0,65,-99.99,,,0.00,,2013-02-10 15:41:00,
2013-02-10 15:51:00,18.0,9.0,-100.00,North,8,5.0,6.0,65,-99.99,,,0.00,,2013-02-10 15:51:00,
2013-02-10 16:11:00,18.0,8.0,-100.00,North,6,9.0,15.0,66,0.00,,,0.00,,2013-02-10 16:11:00,
2013-02-10 16:21:00,18.0,8.0,-100.00,North,6,9.0,15.0,66,0.00,,,0.00,,2013-02-10 16:21:00,
2013-02-10 16:32:00,18.0,8.0,-100.00,North,6,9.0,15.0,66,0.00,,,0.00,,2013-02-10 16:32:00,
2013-02-10 16:42:00,18.0,8.0,-100.00,North,6,9.0,15.0,66,0.00,,,0.00,,2013-02-10 16:42:00,
2013-02-10 16:51:00,18.0,8.0,-100.00,North,6,9.0,15.0,66,0.00,,,0.00,,2013-02-10 16:51:00,
2013-02-10 17:21:00,19.0,7.0,-100.00,North,358,9.0,14.0,60,0.00,,,0.00,,2013-02-10 17:21:00,
2013-02-10 17:32:00,19.0,7.0,-100.00,North,358,9.0,14.0,60,0.00,,,0.00,,2013-02-10 17:32:00,
2013-02-10 17:42:00,19.0,7.0,-100.00,North,358,9.0,14.0,60,0.00,,,0.00,,2013-02-10 17:42:00,
2013-02-10 17:52:00,19.0,7.0,-100.00,North,358,9.0,14.0,60,0.00,,,0.00,,2013-02-10 17:52:00,
2013-02-10 18:21:00,20.0,7.0,-100.00,NNE,12,8.0,13.0,56,0.00,,,0.00,,2013-02-10 18:21:00,
2013-02-10 18:31:00,20.0,7.0,-100.00,NNE,12,8.0,13.0,56,0.00,,,0.00,,2013-02-10 18:31:00,
2013-02-10 18:41:00,20.0,7.0,-100.00,NNE,12,8.0,13.0,56,0.00,,,0.00,,2013-02-10 18:41:00,
2013-02-10 18:52:00,20.0,7.0,-100.00,NNE,12,8.0,13.0,56,0.00,,,0.00,,2013-02-10 18:52:00,
2013-02-10 19:11:00,21.0,5.0,-100.00,NNE,18,9.0,21.0,50,0.00,,,0.00,,2013-02-10 19:11:00,
2013-02-10 19:21:00,21.0,5.0,-100.00,NNE,18,9.0,21.0,50,0.00,,,0.00,,2013-02-10 19:21:00,
2013-02-10 19:32:00,21.0,5.0,-100.00,NNE,18,9.0,21.0,50,0.00,,,0.00,,2013-02-10 19:32:00,
2013-02-10 19:42:00,21.0,5.0,-100.00,NNE,18,9.0,21.0,50,0.00,,,0.00,,2013-02-10 19:42:00,
2013-02-10 19:51:00,21.0,5.0,-100.00,NNE,18,9.0,21.0,50,0.00,,,0.00,,2013-02-10 19:51:00,
2013-02-10 20:11:00,26.0,5.0,-100.00,NNE,30,10.0,17.0,40,0.00,,,0.00,,2013-02-10 20:11:00,
2013-02-10 20:21:00,26.0,5.0,-100.00,NNE,30,10.0,17.0,40,0.00,,,0.00,,2013-02-10 20:21:00,
2013-02-10 20:32:00,26.0,5.0,-100.00,NNE,30,10.0,17.0,40,0.00,,,0.00,,2013-02-10 20:32:00,
2013-02-10 20:42:00,26.0,5.0,-100.00,NNE,30,10.0,17.0,40,0.00,,,0.00,,2013-02-10 20:42:00,
2013-02-10 20:52:00,26.0,5.0,-100.00,NNE,30,10.0,17.0,40,0.00,,,0.00,,2013-02-10 20:52:00,
2013-02-10 21:11:00,27.0,6.0,-100.00,NE,37,12.0,16.0,40,0.00,,,0.00,,2013-02-10 21:11:00,
2013-02-10 21:21:00,27.0,6.0,-100.00,NE,37,12.0,16.0,40,0.00,,,0.00,,2013-02-10 21:21:00,
2013-02-10 21:32:00,27.0,6.0,-100.00,NE,37,12.0,16.0,40,0.00,,,0.00,,2013-02-10 21:32:00,
2013-02-10 21:42:00,27.0,6.0,-100.00,NE,37,12.0,16.0,40,0.00,,,0.00,,2013-02-10 21:42:00,
2013-02-10 21:51:00,27.0,6.0,-100.00,NE,37,12.0,16.0,40,0.00,,,0.00,,2013-02-10 21:51:00,
2013-02-10 22:21:00,27.0,5.0,-100.00,North,356,10.0,17.0,38,0.00,,,0.00,,2013-02-10 22:21:00,
2013-02-10 22:32:00,27.0,5.0,-100.00,North,356,10.0,17.0,38,0.00,,,0.00,,2013-02-10 22:32:00,
2013-02-10 22:42:00,27.0,5.0,-100.00,North,356,10.0,17.0,38,0.00,,,0.00,,2013-02-10 22:42:00,
2013-02-10 22:52:00,27.0,5.0,-100.00,North,356,10.0,17.0,38,0.00,,,0.00,,2013-02-10 22:52:00,
2013-02-10 23:11:00,26.0,6.0,-100.00,North,4,9.0,14.0,42,0.00,,,0.00,,2013-02-10 23:11:00,
2013-02-10 23:21:00,26.0,6.0,-100.00,North,4,9.0,14.0,42,0.00,,,0.00,,2013-02-10 23:21:00,
2013-02-10 23:32:00,26.0,6.0,-100.00,North,4,9.0,14.0,42,0.00,,,0.00,,2013-02-10 23:32:00,
2013-02-10 23:41:00,26.0,6.0,-100.00,North,4,9.0,14.0,42,0.00,,,0.00,,2013-02-10 23:41:00,
2013-02-10 23:52:00,26.0,6.0,-100.00,North,4,9.0,14.0,42,0.00,,,0.00,,2013-02-10 23:52:00,